sensor_id;sensor_type;location;lat;lon;timestamp;temperature;humidity
59301;DHT22;45073;52.740;6.784;2022-09-24T00:00:41;14.60;99.90
59301;DHT22;45073;52.740;6.784;2022-09-24T00:03:06;14.60;99.90
59301;DHT22;45073;52.740;6.784;2022-09-24T00:05:37;14.50;99.90
59301;DHT22;45073;52.740;6.784;2022-09-24T00:08:07;14.50;99.90
59301;DHT22;45073;52.740;6.784;2022-09-24T00:10:38;14.50;99.90
59301;DHT22;45073;52.740;6.784;2022-09-24T00:13:04;14.50;99.90
59301;DHT22;45073;52.740;6.784;2022-09-24T00:15:30;14.50;99.90
59301;DHT22;45073;52.740;6.784;2022-09-24T00:17:55;14.60;99.90
59301;DHT22;45073;52.740;6.784;2022-09-24T00:20:22;14.50;99.90
59301;DHT22;45073;52.740;6.784;2022-09-24T00:22:47;14.50;99.90
59301;DHT22;45073;52.740;6.784;2022-09-24T00:25:13;14.50;99.90
59301;DHT22;45073;52.740;6.784;2022-09-24T00:27:57;14.50;99.90
59301;DHT22;45073;52.740;6.784;2022-09-24T00:30:23;14.50;99.90
59301;DHT22;45073;52.740;6.784;2022-09-24T00:32:48;14.50;99.90
59301;DHT22;45073;52.740;6.784;2022-09-24T00:35:14;14.50;99.90
59301;DHT22;45073;52.740;6.784;2022-09-24T00:37:39;14.50;99.90
59301;DHT22;45073;52.740;6.784;2022-09-24T00:40:05;14.40;99.90
59301;DHT22;45073;52.740;6.784;2022-09-24T00:42:31;14.40;99.90
59301;DHT22;45073;52.740;6.784;2022-09-24T00:44:57;14.50;99.90
59301;DHT22;45073;52.740;6.784;2022-09-24T00:47:35;14.40;99.90
59301;DHT22;45073;52.740;6.784;2022-09-24T00:53:07;14.40;99.90
59301;DHT22;45073;52.740;6.784;2022-09-24T00:55:32;14.30;99.90
59301;DHT22;45073;52.740;6.784;2022-09-24T00:58:01;14.30;99.90
59301;DHT22;45073;52.740;6.784;2022-09-24T01:00:28;14.30;99.90
59301;DHT22;45073;52.740;6.784;2022-09-24T01:02:59;14.40;99.90
59301;DHT22;45073;52.740;6.784;2022-09-24T01:05:27;14.30;99.90
59301;DHT22;45073;52.740;6.784;2022-09-24T01:07:52;14.20;99.90
59301;DHT22;45073;52.740;6.784;2022-09-24T01:22:35;14.30;99.90
59301;DHT22;45073;52.740;6.784;2022-09-24T01:25:31;14.30;99.90
59301;DHT22;45073;52.740;6.784;2022-09-24T01:30:34;14.30;99.90
59301;DHT22;45073;52.740;6.784;2022-09-24T01:33:05;14.20;99.90
59301;DHT22;45073;52.740;6.784;2022-09-24T01:38:10;14.30;99.90
59301;DHT22;45073;52.740;6.784;2022-09-24T01:40:38;14.30;99.90
59301;DHT22;45073;52.740;6.784;2022-09-24T01:43:07;14.30;99.90
59301;DHT22;45073;52.740;6.784;2022-09-24T01:45:34;14.30;99.90
59301;DHT22;45073;52.740;6.784;2022-09-24T01:48:03;14.30;99.90
59301;DHT22;45073;52.740;6.784;2022-09-24T01:50:34;14.30;99.90
59301;DHT22;45073;52.740;6.784;2022-09-24T01:53:27;14.20;99.90
59301;DHT22;45073;52.740;6.784;2022-09-24T01:55:59;14.20;99.90
59301;DHT22;45073;52.740;6.784;2022-09-24T01:58:31;14.30;99.90
59301;DHT22;45073;52.740;6.784;2022-09-24T02:01:06;14.30;99.90
59301;DHT22;45073;52.740;6.784;2022-09-24T02:03:38;14.20;99.90
59301;DHT22;45073;52.740;6.784;2022-09-24T02:06:21;14.30;99.90
59301;DHT22;45073;52.740;6.784;2022-09-24T02:08:48;14.30;99.90
59301;DHT22;45073;52.740;6.784;2022-09-24T02:11:21;14.30;99.90
59301;DHT22;45073;52.740;6.784;2022-09-24T02:13:58;14.20;99.90
59301;DHT22;45073;52.740;6.784;2022-09-24T02:16:34;14.20;99.90
59301;DHT22;45073;52.740;6.784;2022-09-24T02:19:04;14.10;99.90
59301;DHT22;45073;52.740;6.784;2022-09-24T02:21:31;14.20;99.90
59301;DHT22;45073;52.740;6.784;2022-09-24T02:24:04;14.20;99.90
59301;DHT22;45073;52.740;6.784;2022-09-24T02:26:32;14.20;99.90
59301;DHT22;45073;52.740;6.784;2022-09-24T02:28:58;14.20;99.90
59301;DHT22;45073;52.740;6.784;2022-09-24T02:31:28;14.20;99.90
59301;DHT22;45073;52.740;6.784;2022-09-24T02:33:56;14.20;99.90
59301;DHT22;45073;52.740;6.784;2022-09-24T02:36:43;14.20;99.90
59301;DHT22;45073;52.740;6.784;2022-09-24T02:39:08;14.20;99.90
59301;DHT22;45073;52.740;6.784;2022-09-24T02:41:34;14.20;99.90
59301;DHT22;45073;52.740;6.784;2022-09-24T02:44:01;14.20;99.90
59301;DHT22;45073;52.740;6.784;2022-09-24T02:46:26;14.20;99.90
59301;DHT22;45073;52.740;6.784;2022-09-24T02:48:52;14.20;99.90
59301;DHT22;45073;52.740;6.784;2022-09-24T02:51:18;14.20;99.90
59301;DHT22;45073;52.740;6.784;2022-09-24T02:53:43;14.20;99.90
59301;DHT22;45073;52.740;6.784;2022-09-24T02:56:09;14.10;99.90
59301;DHT22;45073;52.740;6.784;2022-09-24T02:58:35;14.10;99.90
59301;DHT22;45073;52.740;6.784;2022-09-24T03:01:02;14.20;99.90
59301;DHT22;45073;52.740;6.784;2022-09-24T03:03:29;14.10;99.90
59301;DHT22;45073;52.740;6.784;2022-09-24T03:05:55;14.10;99.90
59301;DHT22;45073;52.740;6.784;2022-09-24T03:08:21;14.20;99.90
59301;DHT22;45073;52.740;6.784;2022-09-24T03:10:49;14.20;99.90
59301;DHT22;45073;52.740;6.784;2022-09-24T03:13:18;14.20;99.90
59301;DHT22;45073;52.740;6.784;2022-09-24T03:15:44;14.20;99.90
59301;DHT22;45073;52.740;6.784;2022-09-24T03:18:10;14.20;99.90
59301;DHT22;45073;52.740;6.784;2022-09-24T03:20:36;14.20;99.90
59301;DHT22;45073;52.740;6.784;2022-09-24T03:23:01;14.30;99.90
59301;DHT22;45073;52.740;6.784;2022-09-24T03:25:27;14.30;99.90
59301;DHT22;45073;52.740;6.784;2022-09-24T03:27:52;14.30;99.90
59301;DHT22;45073;52.740;6.784;2022-09-24T03:30:18;14.30;99.90
59301;DHT22;45073;52.740;6.784;2022-09-24T03:33:02;14.30;99.90
59301;DHT22;45073;52.740;6.784;2022-09-24T03:35:27;14.30;99.90
59301;DHT22;45073;52.740;6.784;2022-09-24T03:37:53;14.30;99.90
59301;DHT22;45073;52.740;6.784;2022-09-24T03:40:19;14.30;99.90
59301;DHT22;45073;52.740;6.784;2022-09-24T03:42:44;14.30;99.90
59301;DHT22;45073;52.740;6.784;2022-09-24T03:45:10;14.30;99.90
59301;DHT22;45073;52.740;6.784;2022-09-24T03:47:35;14.20;99.90
59301;DHT22;45073;52.740;6.784;2022-09-24T03:50:01;14.20;99.90
59301;DHT22;45073;52.740;6.784;2022-09-24T03:52:27;14.20;99.90
59301;DHT22;45073;52.740;6.784;2022-09-24T03:54:54;14.30;99.90
59301;DHT22;45073;52.740;6.784;2022-09-24T03:57:20;14.30;99.90
59301;DHT22;45073;52.740;6.784;2022-09-24T03:59:45;14.30;99.90
59301;DHT22;45073;52.740;6.784;2022-09-24T04:02:11;14.30;99.90
59301;DHT22;45073;52.740;6.784;2022-09-24T04:04:37;14.20;99.90
59301;DHT22;45073;52.740;6.784;2022-09-24T04:07:03;14.30;99.90
59301;DHT22;45073;52.740;6.784;2022-09-24T04:09:29;14.30;99.90
59301;DHT22;45073;52.740;6.784;2022-09-24T04:11:55;14.30;99.90
59301;DHT22;45073;52.740;6.784;2022-09-24T04:14:21;14.30;99.90
59301;DHT22;45073;52.740;6.784;2022-09-24T04:16:47;14.30;99.90
59301;DHT22;45073;52.740;6.784;2022-09-24T04:19:13;14.30;99.90
59301;DHT22;45073;52.740;6.784;2022-09-24T04:21:41;14.30;99.90
59301;DHT22;45073;52.740;6.784;2022-09-24T04:24:07;14.30;99.90
59301;DHT22;45073;52.740;6.784;2022-09-24T04:26:33;14.30;99.90
59301;DHT22;45073;52.740;6.784;2022-09-24T04:28:58;14.30;99.90
59301;DHT22;45073;52.740;6.784;2022-09-24T04:31:24;14.30;99.90
59301;DHT22;45073;52.740;6.784;2022-09-24T04:33:52;14.30;99.90
59301;DHT22;45073;52.740;6.784;2022-09-24T04:36:18;14.30;99.90
59301;DHT22;45073;52.740;6.784;2022-09-24T04:38:44;14.30;99.90
59301;DHT22;45073;52.740;6.784;2022-09-24T04:41:11;14.30;99.90
59301;DHT22;45073;52.740;6.784;2022-09-24T04:43:37;14.30;99.90
59301;DHT22;45073;52.740;6.784;2022-09-24T04:46:03;14.30;99.90
59301;DHT22;45073;52.740;6.784;2022-09-24T04:48:29;14.30;99.90
59301;DHT22;45073;52.740;6.784;2022-09-24T04:50:55;14.30;99.90
59301;DHT22;45073;52.740;6.784;2022-09-24T04:53:21;14.20;99.90
59301;DHT22;45073;52.740;6.784;2022-09-24T04:55:47;14.30;99.90
59301;DHT22;45073;52.740;6.784;2022-09-24T04:58:14;14.30;99.90
59301;DHT22;45073;52.740;6.784;2022-09-24T05:00:39;14.40;99.90
59301;DHT22;45073;52.740;6.784;2022-09-24T05:03:06;14.30;99.90
59301;DHT22;45073;52.740;6.784;2022-09-24T05:05:33;14.30;99.90
59301;DHT22;45073;52.740;6.784;2022-09-24T05:07:59;14.30;99.90
59301;DHT22;45073;52.740;6.784;2022-09-24T05:10:26;14.30;99.90
59301;DHT22;45073;52.740;6.784;2022-09-24T05:12:52;14.30;99.90
59301;DHT22;45073;52.740;6.784;2022-09-24T05:15:18;14.30;99.90
59301;DHT22;45073;52.740;6.784;2022-09-24T05:17:45;14.30;99.90
59301;DHT22;45073;52.740;6.784;2022-09-24T05:20:10;14.30;99.90
59301;DHT22;45073;52.740;6.784;2022-09-24T05:22:47;14.30;99.90
59301;DHT22;45073;52.740;6.784;2022-09-24T05:25:15;14.20;99.90
59301;DHT22;45073;52.740;6.784;2022-09-24T05:27:52;14.10;99.90
59301;DHT22;45073;52.740;6.784;2022-09-24T05:30:19;14.20;99.90
59301;DHT22;45073;52.740;6.784;2022-09-24T05:32:45;14.20;99.90
59301;DHT22;45073;52.740;6.784;2022-09-24T05:35:14;14.20;99.90
59301;DHT22;45073;52.740;6.784;2022-09-24T05:37:39;14.20;99.90
59301;DHT22;45073;52.740;6.784;2022-09-24T05:40:06;14.20;99.90
59301;DHT22;45073;52.740;6.784;2022-09-24T05:42:51;14.10;99.90
59301;DHT22;45073;52.740;6.784;2022-09-24T05:45:16;14.20;99.90
59301;DHT22;45073;52.740;6.784;2022-09-24T05:47:46;14.20;99.90
59301;DHT22;45073;52.740;6.784;2022-09-24T05:50:12;14.10;99.90
59301;DHT22;45073;52.740;6.784;2022-09-24T05:52:41;14.20;99.90
59301;DHT22;45073;52.740;6.784;2022-09-24T05:55:08;14.20;99.90
59301;DHT22;45073;52.740;6.784;2022-09-24T05:57:34;14.20;99.90
59301;DHT22;45073;52.740;6.784;2022-09-24T06:00:00;14.20;99.90
59301;DHT22;45073;52.740;6.784;2022-09-24T06:02:25;14.20;99.90
59301;DHT22;45073;52.740;6.784;2022-09-24T06:04:51;14.20;99.90
59301;DHT22;45073;52.740;6.784;2022-09-24T06:07:16;14.20;99.90
59301;DHT22;45073;52.740;6.784;2022-09-24T06:09:42;14.30;99.90
59301;DHT22;45073;52.740;6.784;2022-09-24T06:12:08;14.20;99.90
59301;DHT22;45073;52.740;6.784;2022-09-24T06:14:35;14.20;99.90
59301;DHT22;45073;52.740;6.784;2022-09-24T06:17:01;14.20;99.90
59301;DHT22;45073;52.740;6.784;2022-09-24T06:19:26;14.20;99.90
59301;DHT22;45073;52.740;6.784;2022-09-24T06:21:52;14.20;99.90
59301;DHT22;45073;52.740;6.784;2022-09-24T06:24:17;14.30;99.90
59301;DHT22;45073;52.740;6.784;2022-09-24T06:26:43;14.20;99.90
59301;DHT22;45073;52.740;6.784;2022-09-24T06:29:08;14.30;99.90
59301;DHT22;45073;52.740;6.784;2022-09-24T06:31:34;14.20;99.90
59301;DHT22;45073;52.740;6.784;2022-09-24T06:33:59;14.20;99.90
59301;DHT22;45073;52.740;6.784;2022-09-24T06:36:27;14.30;99.90
59301;DHT22;45073;52.740;6.784;2022-09-24T06:38:53;14.20;99.90
59301;DHT22;45073;52.740;6.784;2022-09-24T06:41:19;14.20;99.90
59301;DHT22;45073;52.740;6.784;2022-09-24T06:43:45;14.20;99.90
59301;DHT22;45073;52.740;6.784;2022-09-24T06:46:10;14.20;99.90
59301;DHT22;45073;52.740;6.784;2022-09-24T06:48:36;14.20;99.90
59301;DHT22;45073;52.740;6.784;2022-09-24T06:51:04;14.30;99.90
59301;DHT22;45073;52.740;6.784;2022-09-24T06:53:30;14.30;99.90
59301;DHT22;45073;52.740;6.784;2022-09-24T06:55:58;14.30;99.90
59301;DHT22;45073;52.740;6.784;2022-09-24T06:58:25;14.40;99.90
59301;DHT22;45073;52.740;6.784;2022-09-24T07:00:52;14.30;99.90
59301;DHT22;45073;52.740;6.784;2022-09-24T07:03:19;14.30;99.90
59301;DHT22;45073;52.740;6.784;2022-09-24T07:05:45;14.40;99.90
59301;DHT22;45073;52.740;6.784;2022-09-24T07:08:10;14.40;99.90
59301;DHT22;45073;52.740;6.784;2022-09-24T07:10:36;14.30;99.90
59301;DHT22;45073;52.740;6.784;2022-09-24T07:13:04;14.40;99.90
59301;DHT22;45073;52.740;6.784;2022-09-24T07:15:29;14.30;99.90
59301;DHT22;45073;52.740;6.784;2022-09-24T07:17:58;14.30;99.90
59301;DHT22;45073;52.740;6.784;2022-09-24T07:20:24;14.30;99.90
59301;DHT22;45073;52.740;6.784;2022-09-24T07:22:52;14.40;99.90
59301;DHT22;45073;52.740;6.784;2022-09-24T07:25:18;14.30;99.90
59301;DHT22;45073;52.740;6.784;2022-09-24T07:27:43;14.40;99.90
59301;DHT22;45073;52.740;6.784;2022-09-24T07:30:09;14.40;99.90
59301;DHT22;45073;52.740;6.784;2022-09-24T07:32:35;14.40;99.90
59301;DHT22;45073;52.740;6.784;2022-09-24T07:35:00;14.40;99.90
59301;DHT22;45073;52.740;6.784;2022-09-24T07:37:26;14.40;99.90
59301;DHT22;45073;52.740;6.784;2022-09-24T07:39:52;14.40;99.90
59301;DHT22;45073;52.740;6.784;2022-09-24T07:42:17;14.30;99.90
59301;DHT22;45073;52.740;6.784;2022-09-24T07:44:43;14.30;99.90
59301;DHT22;45073;52.740;6.784;2022-09-24T07:47:10;14.30;99.90
59301;DHT22;45073;52.740;6.784;2022-09-24T07:49:35;14.30;99.90
59301;DHT22;45073;52.740;6.784;2022-09-24T07:52:03;14.30;99.90
59301;DHT22;45073;52.740;6.784;2022-09-24T07:54:29;14.30;99.90
59301;DHT22;45073;52.740;6.784;2022-09-24T07:56:55;14.30;99.90
59301;DHT22;45073;52.740;6.784;2022-09-24T07:59:21;14.40;99.90
59301;DHT22;45073;52.740;6.784;2022-09-24T08:01:47;14.30;99.90
59301;DHT22;45073;52.740;6.784;2022-09-24T08:04:12;14.30;99.90
59301;DHT22;45073;52.740;6.784;2022-09-24T08:06:38;14.30;99.90
59301;DHT22;45073;52.740;6.784;2022-09-24T08:09:03;14.30;99.90
59301;DHT22;45073;52.740;6.784;2022-09-24T08:11:29;14.30;99.90
59301;DHT22;45073;52.740;6.784;2022-09-24T08:13:56;14.30;99.90
59301;DHT22;45073;52.740;6.784;2022-09-24T08:16:22;14.30;99.90
59301;DHT22;45073;52.740;6.784;2022-09-24T08:18:48;14.30;99.90
59301;DHT22;45073;52.740;6.784;2022-09-24T08:21:13;14.30;99.90
59301;DHT22;45073;52.740;6.784;2022-09-24T08:23:43;14.30;99.90
59301;DHT22;45073;52.740;6.784;2022-09-24T08:26:10;14.30;99.90
59301;DHT22;45073;52.740;6.784;2022-09-24T08:28:36;14.20;99.90
59301;DHT22;45073;52.740;6.784;2022-09-24T08:31:06;14.20;99.90
59301;DHT22;45073;52.740;6.784;2022-09-24T08:33:34;14.20;99.90
59301;DHT22;45073;52.740;6.784;2022-09-24T08:36:06;14.20;99.90
59301;DHT22;45073;52.740;6.784;2022-09-24T08:38:32;14.30;99.90
59301;DHT22;45073;52.740;6.784;2022-09-24T08:49:16;14.40;99.90
59301;DHT22;45073;52.740;6.784;2022-09-24T08:54:34;14.50;99.90
59301;DHT22;45073;52.740;6.784;2022-09-24T08:57:04;14.50;99.90
59301;DHT22;45073;52.740;6.784;2022-09-24T08:59:34;14.50;99.90
59301;DHT22;45073;52.740;6.784;2022-09-24T09:05:34;14.70;99.90
59301;DHT22;45073;52.740;6.784;2022-09-24T09:08:27;14.70;99.90
59301;DHT22;45073;52.740;6.784;2022-09-24T09:10:57;14.70;99.90
59301;DHT22;45073;52.740;6.784;2022-09-24T09:16:06;14.70;99.90
59301;DHT22;45073;52.740;6.784;2022-09-24T09:18:38;14.80;99.90
59301;DHT22;45073;52.740;6.784;2022-09-24T09:21:23;14.80;99.90
59301;DHT22;45073;52.740;6.784;2022-09-24T09:23:51;14.80;99.90
59301;DHT22;45073;52.740;6.784;2022-09-24T09:26:18;14.80;99.90
59301;DHT22;45073;52.740;6.784;2022-09-24T09:28:47;14.90;99.90
59301;DHT22;45073;52.740;6.784;2022-09-24T09:34:22;15.00;99.90
59301;DHT22;45073;52.740;6.784;2022-09-24T09:37:12;15.00;99.90
59301;DHT22;45073;52.740;6.784;2022-09-24T09:42:37;15.00;99.90
59301;DHT22;45073;52.740;6.784;2022-09-24T09:48:12;15.00;99.90
59301;DHT22;45073;52.740;6.784;2022-09-24T09:50:49;15.00;99.90
59301;DHT22;45073;52.740;6.784;2022-09-24T09:53:22;15.00;99.90
59301;DHT22;45073;52.740;6.784;2022-09-24T09:55:57;15.00;99.90
59301;DHT22;45073;52.740;6.784;2022-09-24T09:58:35;15.00;99.90
59301;DHT22;45073;52.740;6.784;2022-09-24T10:01:10;15.00;99.90
59301;DHT22;45073;52.740;6.784;2022-09-24T10:06:11;15.10;99.90
59301;DHT22;45073;52.740;6.784;2022-09-24T10:08:38;15.10;99.90
59301;DHT22;45073;52.740;6.784;2022-09-24T10:11:05;15.20;99.90
59301;DHT22;45073;52.740;6.784;2022-09-24T10:13:32;15.20;99.90
59301;DHT22;45073;52.740;6.784;2022-09-24T10:16:04;15.30;99.90
59301;DHT22;45073;52.740;6.784;2022-09-24T10:18:37;15.30;99.90
59301;DHT22;45073;52.740;6.784;2022-09-24T10:21:08;15.40;99.90
59301;DHT22;45073;52.740;6.784;2022-09-24T10:23:44;15.50;99.90
59301;DHT22;45073;52.740;6.784;2022-09-24T10:26:11;15.50;99.90
59301;DHT22;45073;52.740;6.784;2022-09-24T10:28:50;15.50;99.90
59301;DHT22;45073;52.740;6.784;2022-09-24T10:31:37;15.70;99.90
59301;DHT22;45073;52.740;6.784;2022-09-24T10:34:18;15.70;99.90
59301;DHT22;45073;52.740;6.784;2022-09-24T10:36:50;15.80;99.90
59301;DHT22;45073;52.740;6.784;2022-09-24T10:39:16;15.80;99.90
59301;DHT22;45073;52.740;6.784;2022-09-24T10:41:50;15.90;99.90
59301;DHT22;45073;52.740;6.784;2022-09-24T10:44:16;15.90;99.90
59301;DHT22;45073;52.740;6.784;2022-09-24T10:47:16;16.00;99.90
59301;DHT22;45073;52.740;6.784;2022-09-24T10:53:06;16.20;99.90
59301;DHT22;45073;52.740;6.784;2022-09-24T11:04:28;16.40;99.90
59301;DHT22;45073;52.740;6.784;2022-09-24T11:12:44;16.50;99.90
59301;DHT22;45073;52.740;6.784;2022-09-24T11:15:32;16.40;99.90
59301;DHT22;45073;52.740;6.784;2022-09-24T11:18:19;16.50;99.90
59301;DHT22;45073;52.740;6.784;2022-09-24T11:24:54;16.60;99.90
59301;DHT22;45073;52.740;6.784;2022-09-24T11:29:46;16.70;99.90
59301;DHT22;45073;52.740;6.784;2022-09-24T11:38:13;16.80;99.90
59301;DHT22;45073;52.740;6.784;2022-09-24T11:43:55;16.70;99.90
59301;DHT22;45073;52.740;6.784;2022-09-24T11:49:27;16.60;99.90
59301;DHT22;45073;52.740;6.784;2022-09-24T11:52:04;16.60;99.90
59301;DHT22;45073;52.740;6.784;2022-09-24T11:54:39;16.60;99.90
59301;DHT22;45073;52.740;6.784;2022-09-24T11:57:10;16.60;99.90
59301;DHT22;45073;52.740;6.784;2022-09-24T11:59:47;16.60;99.90
59301;DHT22;45073;52.740;6.784;2022-09-24T12:02:35;16.60;99.90
59301;DHT22;45073;52.740;6.784;2022-09-24T12:05:16;16.60;99.90
59301;DHT22;45073;52.740;6.784;2022-09-24T12:07:52;16.50;99.90
59301;DHT22;45073;52.740;6.784;2022-09-24T12:13:05;16.50;99.90
59301;DHT22;45073;52.740;6.784;2022-09-24T12:15:44;16.50;99.90
59301;DHT22;45073;52.740;6.784;2022-09-24T12:18:16;16.50;99.90
59301;DHT22;45073;52.740;6.784;2022-09-24T12:20:58;16.40;99.90
59301;DHT22;45073;52.740;6.784;2022-09-24T12:23:28;16.40;99.90
59301;DHT22;45073;52.740;6.784;2022-09-24T12:25:57;16.30;99.90
59301;DHT22;45073;52.740;6.784;2022-09-24T12:28:26;16.40;99.90
59301;DHT22;45073;52.740;6.784;2022-09-24T12:31:27;16.40;99.90
59301;DHT22;45073;52.740;6.784;2022-09-24T12:37:15;16.50;99.90
59301;DHT22;45073;52.740;6.784;2022-09-24T12:39:51;16.50;99.90
59301;DHT22;45073;52.740;6.784;2022-09-24T12:42:19;16.60;99.90
59301;DHT22;45073;52.740;6.784;2022-09-24T12:44:56;16.60;99.90
59301;DHT22;45073;52.740;6.784;2022-09-24T12:47:27;16.80;99.90
59301;DHT22;45073;52.740;6.784;2022-09-24T12:50:01;16.90;99.90
59301;DHT22;45073;52.740;6.784;2022-09-24T12:52:33;17.10;99.90
59301;DHT22;45073;52.740;6.784;2022-09-24T12:55:02;17.30;99.90
59301;DHT22;45073;52.740;6.784;2022-09-24T12:57:38;17.50;99.90
59301;DHT22;45073;52.740;6.784;2022-09-24T13:02:58;17.70;99.90
59301;DHT22;45073;52.740;6.784;2022-09-24T13:05:33;17.60;99.90
59301;DHT22;45073;52.740;6.784;2022-09-24T13:10:59;17.60;99.90
59301;DHT22;45073;52.740;6.784;2022-09-24T13:13:27;17.70;99.90
59301;DHT22;45073;52.740;6.784;2022-09-24T13:18:32;17.60;99.90
59301;DHT22;45073;52.740;6.784;2022-09-24T13:21:04;17.60;99.90
59301;DHT22;45073;52.740;6.784;2022-09-24T13:26:05;17.40;99.90
59301;DHT22;45073;52.740;6.784;2022-09-24T13:28:49;17.40;99.90
59301;DHT22;45073;52.740;6.784;2022-09-24T13:31:34;17.30;99.90
59301;DHT22;45073;52.740;6.784;2022-09-24T13:36:37;17.10;99.90
59301;DHT22;45073;52.740;6.784;2022-09-24T13:42:13;17.00;99.90
59301;DHT22;45073;52.740;6.784;2022-09-24T13:44:43;17.00;99.90
59301;DHT22;45073;52.740;6.784;2022-09-24T13:47:21;17.00;99.90
59301;DHT22;45073;52.740;6.784;2022-09-24T13:49:49;17.00;99.90
59301;DHT22;45073;52.740;6.784;2022-09-24T13:52:36;17.00;99.90
59301;DHT22;45073;52.740;6.784;2022-09-24T13:55:16;17.00;99.90
59301;DHT22;45073;52.740;6.784;2022-09-24T13:57:44;16.90;99.90
59301;DHT22;45073;52.740;6.784;2022-09-24T14:02:37;16.90;99.90
59301;DHT22;45073;52.740;6.784;2022-09-24T14:05:07;16.90;99.90
59301;DHT22;45073;52.740;6.784;2022-09-24T14:07:39;16.80;99.90
59301;DHT22;45073;52.740;6.784;2022-09-24T14:10:11;16.80;99.90
59301;DHT22;45073;52.740;6.784;2022-09-24T14:12:37;16.70;99.90
59301;DHT22;45073;52.740;6.784;2022-09-24T14:15:13;16.70;99.90
59301;DHT22;45073;52.740;6.784;2022-09-24T14:17:39;16.70;99.90
59301;DHT22;45073;52.740;6.784;2022-09-24T14:20:05;16.60;99.90
59301;DHT22;45073;52.740;6.784;2022-09-24T14:22:38;16.60;99.90
59301;DHT22;45073;52.740;6.784;2022-09-24T14:25:29;16.50;99.90
59301;DHT22;45073;52.740;6.784;2022-09-24T14:27:57;16.60;99.90
59301;DHT22;45073;52.740;6.784;2022-09-24T14:30:26;16.50;99.90
59301;DHT22;45073;52.740;6.784;2022-09-24T14:32:57;16.50;99.90
59301;DHT22;45073;52.740;6.784;2022-09-24T14:35:34;16.50;99.90
59301;DHT22;45073;52.740;6.784;2022-09-24T14:38:04;16.50;99.90
59301;DHT22;45073;52.740;6.784;2022-09-24T14:41:12;16.40;99.90
59301;DHT22;45073;52.740;6.784;2022-09-24T14:43:45;16.30;99.90
59301;DHT22;45073;52.740;6.784;2022-09-24T14:46:22;16.30;99.90
59301;DHT22;45073;52.740;6.784;2022-09-24T14:48:48;16.30;99.90
59301;DHT22;45073;52.740;6.784;2022-09-24T14:51:27;16.20;99.90
59301;DHT22;45073;52.740;6.784;2022-09-24T14:56:44;16.10;99.90
59301;DHT22;45073;52.740;6.784;2022-09-24T14:59:14;16.10;99.90
59301;DHT22;45073;52.740;6.784;2022-09-24T15:01:42;16.10;99.90
59301;DHT22;45073;52.740;6.784;2022-09-24T15:04:22;16.10;99.90
59301;DHT22;45073;52.740;6.784;2022-09-24T15:06:49;16.10;99.90
59301;DHT22;45073;52.740;6.784;2022-09-24T15:09:27;16.00;99.90
59301;DHT22;45073;52.740;6.784;2022-09-24T15:11:53;16.10;99.90
59301;DHT22;45073;52.740;6.784;2022-09-24T15:14:23;16.10;99.90
59301;DHT22;45073;52.740;6.784;2022-09-24T15:17:07;16.00;99.90
59301;DHT22;45073;52.740;6.784;2022-09-24T15:19:35;16.00;99.90
59301;DHT22;45073;52.740;6.784;2022-09-24T15:22:02;15.90;99.90
59301;DHT22;45073;52.740;6.784;2022-09-24T15:24:27;15.90;99.90
59301;DHT22;45073;52.740;6.784;2022-09-24T15:27:14;15.90;99.90
59301;DHT22;45073;52.740;6.784;2022-09-24T15:29:40;15.90;99.90
59301;DHT22;45073;52.740;6.784;2022-09-24T15:32:15;15.90;99.90
59301;DHT22;45073;52.740;6.784;2022-09-24T15:34:41;15.80;99.90
59301;DHT22;45073;52.740;6.784;2022-09-24T15:37:09;15.80;99.90
59301;DHT22;45073;52.740;6.784;2022-09-24T15:39:36;15.80;99.90
59301;DHT22;45073;52.740;6.784;2022-09-24T15:42:02;15.80;99.90
59301;DHT22;45073;52.740;6.784;2022-09-24T15:44:28;15.80;99.90
59301;DHT22;45073;52.740;6.784;2022-09-24T15:46:54;15.80;99.90
59301;DHT22;45073;52.740;6.784;2022-09-24T15:49:20;15.70;99.90
59301;DHT22;45073;52.740;6.784;2022-09-24T15:52:04;15.70;99.90
59301;DHT22;45073;52.740;6.784;2022-09-24T15:54:30;15.70;99.90
59301;DHT22;45073;52.740;6.784;2022-09-24T15:56:56;15.70;99.90
59301;DHT22;45073;52.740;6.784;2022-09-24T15:59:21;15.70;99.90
59301;DHT22;45073;52.740;6.784;2022-09-24T16:01:53;15.60;99.90
59301;DHT22;45073;52.740;6.784;2022-09-24T16:04:19;15.60;99.90
59301;DHT22;45073;52.740;6.784;2022-09-24T16:06:45;15.60;99.90
59301;DHT22;45073;52.740;6.784;2022-09-24T16:09:10;15.60;99.90
59301;DHT22;45073;52.740;6.784;2022-09-24T16:11:36;15.60;99.90
59301;DHT22;45073;52.740;6.784;2022-09-24T16:14:02;15.50;99.90
59301;DHT22;45073;52.740;6.784;2022-09-24T16:16:27;15.50;99.90
59301;DHT22;45073;52.740;6.784;2022-09-24T16:18:53;15.50;99.90
59301;DHT22;45073;52.740;6.784;2022-09-24T16:21:18;15.50;99.90
59301;DHT22;45073;52.740;6.784;2022-09-24T16:23:44;15.50;99.90
59301;DHT22;45073;52.740;6.784;2022-09-24T16:26:10;15.50;99.90
59301;DHT22;45073;52.740;6.784;2022-09-24T16:28:35;15.50;99.90
59301;DHT22;45073;52.740;6.784;2022-09-24T16:31:05;15.50;99.90
59301;DHT22;45073;52.740;6.784;2022-09-24T16:33:32;15.40;99.90
59301;DHT22;45073;52.740;6.784;2022-09-24T16:36:05;15.40;99.90
59301;DHT22;45073;52.740;6.784;2022-09-24T16:38:35;15.50;99.90
59301;DHT22;45073;52.740;6.784;2022-09-24T16:41:02;15.50;99.90
59301;DHT22;45073;52.740;6.784;2022-09-24T16:43:28;15.40;99.90
59301;DHT22;45073;52.740;6.784;2022-09-24T16:46:02;15.40;99.90
59301;DHT22;45073;52.740;6.784;2022-09-24T16:48:28;15.40;99.90
59301;DHT22;45073;52.740;6.784;2022-09-24T16:50:59;15.40;99.90
59301;DHT22;45073;52.740;6.784;2022-09-24T16:53:25;15.40;99.90
59301;DHT22;45073;52.740;6.784;2022-09-24T16:55:51;15.30;99.90
59301;DHT22;45073;52.740;6.784;2022-09-24T16:58:16;15.40;99.90
59301;DHT22;45073;52.740;6.784;2022-09-24T17:00:42;15.30;99.90
59301;DHT22;45073;52.740;6.784;2022-09-24T17:03:10;15.30;99.90
59301;DHT22;45073;52.740;6.784;2022-09-24T17:05:38;15.40;99.90
59301;DHT22;45073;52.740;6.784;2022-09-24T17:08:05;15.30;99.90
59301;DHT22;45073;52.740;6.784;2022-09-24T17:10:30;15.30;99.90
59301;DHT22;45073;52.740;6.784;2022-09-24T17:12:56;15.30;99.90
59301;DHT22;45073;52.740;6.784;2022-09-24T17:15:22;15.30;99.90
59301;DHT22;45073;52.740;6.784;2022-09-24T17:17:47;15.30;99.90
59301;DHT22;45073;52.740;6.784;2022-09-24T17:20:14;15.30;99.90
59301;DHT22;45073;52.740;6.784;2022-09-24T17:22:40;15.20;99.90
59301;DHT22;45073;52.740;6.784;2022-09-24T17:25:06;15.10;99.90
59301;DHT22;45073;52.740;6.784;2022-09-24T17:27:32;15.10;99.90
59301;DHT22;45073;52.740;6.784;2022-09-24T17:30:03;15.20;99.90
59301;DHT22;45073;52.740;6.784;2022-09-24T17:32:28;15.20;99.90
59301;DHT22;45073;52.740;6.784;2022-09-24T17:34:54;15.10;99.90
59301;DHT22;45073;52.740;6.784;2022-09-24T17:37:20;15.10;99.90